Time;durP1;ratioP1;P1;durP2;ratioP2;P2;SDS_P1;SDS_P2;PMS_P1;PMS_P2;Temp;Humidity;BMP_temperature;BMP_pressure;BME280_temperature;BME280_humidity;BME280_pressure;Samples;Min_cycle;Max_cycle;Signal;HPM_P1;HPM_P2
2023/12/21 00:01:26;;;;;;;1.80;0.50;;;9.90;68.10;8.50;96139.00;;;;4973747;28;20250;-88
2023/12/21 00:03:53;;;;;;;1.13;0.50;;;9.80;67.80;8.60;96130.00;;;;4986088;28;20310;-88
2023/12/21 00:06:20;;;;;;;1.00;0.40;;;9.90;67.80;8.60;96138.00;;;;4980831;28;20307;-88
2023/12/21 00:08:47;;;;;;;0.43;0.30;;;9.90;67.90;8.60;96121.00;;;;4977913;28;20569;-87
2023/12/21 00:11:14;;;;;;;1.20;0.33;;;10.00;68.00;8.60;96110.00;;;;4976921;28;20254;-88
2023/12/21 00:13:42;;;;;;;1.00;0.50;;;10.00;67.90;8.70;96113.00;;;;4976736;28;20262;-88
2023/12/21 00:16:09;;;;;;;0.67;0.20;;;10.00;67.80;8.70;96108.00;;;;4984000;28;20223;-88
2023/12/21 00:18:39;;;;;;;0.40;0.40;;;10.00;67.60;8.60;96113.00;;;;4978179;28;20195;-88
2023/12/21 00:21:08;;;;;;;1.00;0.40;;;10.00;67.60;8.70;96102.00;;;;4982821;28;20208;-87
2023/12/21 00:23:37;;;;;;;0.27;0.20;;;10.00;67.30;8.70;96114.00;;;;4979998;28;20210;-88
2023/12/21 00:26:08;;;;;;;0.50;0.30;;;10.00;67.50;8.70;96103.00;;;;4976192;28;20227;-88
2023/12/21 00:28:38;;;;;;;0.50;0.40;;;10.10;67.30;8.70;96107.00;;;;4979335;28;20581;-88
2023/12/21 00:31:06;;;;;;;1.40;0.70;;;10.10;67.40;8.80;96098.00;;;;4984491;28;20237;-89
2023/12/21 00:33:38;;;;;;;0.67;0.30;;;10.10;67.30;8.80;96094.00;;;;4972089;28;20211;-88
2023/12/21 00:36:06;;;;;;;1.10;0.30;;;10.10;67.30;8.80;96094.00;;;;4976275;28;20230;-88
2023/12/21 00:38:34;;;;;;;0.70;0.60;;;10.10;67.50;8.80;96090.00;;;;4975692;28;20238;-88
2023/12/21 00:41:01;;;;;;;0.40;0.23;;;10.10;67.50;8.80;96085.00;;;;4972654;28;20258;-89
2023/12/21 00:43:29;;;;;;;0.47;0.43;;;10.10;67.50;8.80;96087.00;;;;4970656;28;20199;-88
2023/12/21 00:45:56;;;;;;;0.50;0.40;;;10.20;67.50;8.80;96088.00;;;;4969976;28;20251;-88
2023/12/21 00:48:23;;;;;;;0.50;0.40;;;10.20;67.50;8.80;96083.00;;;;4972864;28;20199;-88
2023/12/21 00:50:52;;;;;;;0.50;0.50;;;10.20;67.40;8.80;96085.00;;;;4978553;28;20273;-88
2023/12/21 00:53:20;;;;;;;0.43;0.30;;;10.20;67.10;8.80;96090.00;;;;4977021;28;20286;-88
2023/12/21 00:55:48;;;;;;;0.60;0.30;;;10.20;67.20;8.80;96080.00;;;;4973074;28;20259;-88
2023/12/21 00:58:15;;;;;;;2.07;0.40;;;10.20;67.40;8.80;96092.00;;;;4974623;28;20206;-88
2023/12/21 01:00:42;;;;;;;1.23;0.60;;;10.20;67.30;8.80;96098.00;;;;4969162;28;20299;-88
2023/12/21 01:03:09;;;;;;;0.47;0.40;;;10.20;67.30;8.80;96093.00;;;;4973874;28;20234;-88
2023/12/21 01:05:36;;;;;;;0.40;0.33;;;10.20;67.20;8.80;96084.00;;;;4971293;28;20255;-88
2023/12/21 01:08:06;;;;;;;0.70;0.20;;;10.20;67.20;8.80;96085.00;;;;4973749;28;20233;-88
2023/12/21 01:10:37;;;;;;;0.60;0.30;;;10.20;66.90;8.90;96085.00;;;;4984046;28;20285;-89
2023/12/21 01:13:05;;;;;;;0.73;0.40;;;10.20;67.10;8.80;96078.00;;;;4980449;28;22056;-88
2023/12/21 01:15:33;;;;;;;0.70;0.50;;;10.20;67.10;8.90;96085.00;;;;4980262;28;20261;-88
2023/12/21 01:18:00;;;;;;;0.67;0.30;;;10.20;66.90;8.90;96085.00;;;;4972644;28;20207;-88
2023/12/21 01:20:27;;;;;;;0.30;0.30;;;10.20;67.00;8.90;96082.00;;;;4980304;28;20298;-88
2023/12/21 01:22:54;;;;;;;0.97;0.23;;;10.20;66.90;8.90;96078.00;;;;4986997;28;20862;-88
2023/12/21 01:25:22;;;;;;;1.13;0.33;;;10.20;67.00;8.90;96082.00;;;;4989549;28;20309;-88
2023/12/21 01:27:50;;;;;;;0.60;0.33;;;10.20;66.80;8.90;96082.00;;;;4980752;28;20748;-88
2023/12/21 01:30:17;;;;;;;0.50;0.40;;;10.30;66.90;8.90;96081.00;;;;4971212;28;20290;-88
2023/12/21 01:32:45;;;;;;;0.93;0.27;;;10.30;67.00;8.90;96073.00;;;;4971299;28;20639;-88
2023/12/21 01:35:12;;;;;;;1.33;0.40;;;10.30;66.90;8.90;96065.00;;;;4973154;28;20250;-88
2023/12/21 01:37:41;;;;;;;0.43;0.30;;;10.30;67.00;8.90;96064.00;;;;4973806;28;20195;-88
2023/12/21 01:40:12;;;;;;;0.57;0.40;;;10.30;67.20;8.90;96067.00;;;;4974907;28;20199;-88
2023/12/21 01:42:43;;;;;;;0.50;0.50;;;10.30;67.10;8.90;96069.00;;;;4985079;28;20228;-88
2023/12/21 01:45:13;;;;;;;0.20;0.20;;;10.30;67.00;8.90;96078.00;;;;4978781;28;20234;-88
2023/12/21 01:47:41;;;;;;;0.50;0.30;;;10.30;67.20;8.90;96054.00;;;;4980070;28;20227;-88
2023/12/21 01:50:13;;;;;;;0.43;0.40;;;10.30;67.40;8.90;96054.00;;;;4976020;28;20231;-88
2023/12/21 01:52:41;;;;;;;0.67;0.50;;;10.30;67.40;8.90;96043.00;;;;4972392;28;20217;-87
2023/12/21 01:55:12;;;;;;;1.13;0.20;;;10.30;67.40;8.90;96032.00;;;;4983856;28;20254;-88
2023/12/21 01:57:41;;;;;;;0.30;0.30;;;10.30;67.50;8.90;96026.00;;;;4980106;28;20310;-88
2023/12/21 02:00:10;;;;;;;0.20;0.10;;;10.30;67.60;8.90;96041.00;;;;4982960;28;20296;-88
2023/12/21 02:02:37;;;;;;;0.40;0.30;;;10.30;67.60;8.90;96032.00;;;;4972930;28;20278;-88
2023/12/21 02:05:06;;;;;;;1.07;0.30;;;10.30;67.80;8.90;96010.00;;;;4986786;28;20255;-88
2023/12/21 02:07:33;;;;;;;0.30;0.30;;;10.30;67.70;8.90;96020.00;;;;4992496;28;20234;-88
2023/12/21 02:10:00;;;;;;;0.40;0.30;;;10.20;67.60;8.90;96017.00;;;;4976924;28;20305;-88
2023/12/21 02:12:27;;;;;;;0.40;0.20;;;10.30;67.90;8.90;96016.00;;;;4987371;28;20281;-88
2023/12/21 02:14:56;;;;;;;0.40;0.27;;;10.30;68.10;8.90;96019.00;;;;4985653;28;20595;-88
2023/12/21 02:17:27;;;;;;;0.30;0.30;;;10.30;68.20;8.90;96008.00;;;;4979347;28;20298;-88
2023/12/21 02:19:54;;;;;;;0.40;0.30;;;10.20;68.40;8.80;96007.00;;;;4987721;28;20808;-88
2023/12/21 02:22:25;;;;;;;0.20;0.20;;;10.20;68.60;8.80;96013.00;;;;4987386;28;20227;-88
2023/12/21 02:24:54;;;;;;;1.10;0.30;;;10.20;68.70;8.80;95997.00;;;;4975963;28;20684;-88
2023/12/21 02:27:21;;;;;;;0.30;0.27;;;10.20;68.80;8.80;95998.00;;;;4979557;28;20207;-88
2023/12/21 02:29:48;;;;;;;0.30;0.30;;;10.20;69.10;8.70;95988.00;;;;4972762;28;20199;-88
2023/12/21 02:32:15;;;;;;;0.63;0.63;;;10.20;69.30;8.70;95984.00;;;;4986400;28;20237;-88
2023/12/21 02:34:43;;;;;;;0.53;0.30;;;10.20;69.30;8.70;95976.00;;;;4989017;28;20673;-88
2023/12/21 02:37:10;;;;;;;0.60;0.13;;;10.10;69.30;8.70;95987.00;;;;4977349;28;20238;-87
2023/12/21 02:39:37;;;;;;;0.40;0.30;;;10.10;69.50;8.70;95966.00;;;;4986345;28;20617;-88
2023/12/21 02:42:07;;;;;;;0.33;0.33;;;10.00;69.50;8.70;95962.00;;;;4983723;28;20298;-88
2023/12/21 02:44:34;;;;;;;0.93;0.30;;;10.10;69.70;8.70;95955.00;;;;4977781;28;20247;-88
2023/12/21 02:47:01;;;;;;;0.60;0.40;;;10.10;69.70;8.70;95957.00;;;;4975433;28;20203;-88
2023/12/21 02:49:28;;;;;;;0.20;0.20;;;10.10;69.70;8.70;95936.00;;;;4976537;28;20243;-88
2023/12/21 02:51:56;;;;;;;0.33;0.20;;;10.00;69.60;8.60;95954.00;;;;4972325;28;20235;-88
2023/12/21 02:54:23;;;;;;;0.30;0.10;;;10.00;69.80;8.60;95954.00;;;;4978318;28;20219;-88
2023/12/21 02:56:50;;;;;;;0.30;0.30;;;10.00;70.00;8.70;95955.00;;;;4971174;28;20230;-88
2023/12/21 02:59:18;;;;;;;0.73;0.70;;;10.00;70.00;8.70;95948.00;;;;4976296;28;20227;-88
2023/12/21 03:01:46;;;;;;;0.30;0.30;;;10.10;70.20;8.60;95943.00;;;;4983555;28;20203;-88
2023/12/21 03:04:14;;;;;;;0.30;0.30;;;10.00;71.00;8.70;95939.00;;;;4981305;28;20200;-88
2023/12/21 03:06:42;;;;;;;0.20;0.20;;;10.00;70.50;8.60;95945.00;;;;4984848;28;20603;-88
2023/12/21 03:09:10;;;;;;;0.50;0.23;;;10.00;70.50;8.60;95943.00;;;;4983578;28;20258;-88
2023/12/21 03:11:37;;;;;;;0.20;0.20;;;10.00;70.50;8.70;95931.00;;;;4971857;28;20195;-88
2023/12/21 03:14:04;;;;;;;0.20;0.20;;;10.00;70.50;8.60;95936.00;;;;4978317;28;20290;-88
2023/12/21 03:16:33;;;;;;;0.30;0.20;;;10.00;70.60;8.60;95929.00;;;;4982166;28;20302;-88
2023/12/21 03:19:01;;;;;;;0.23;0.23;;;10.10;70.70;8.60;95916.00;;;;4972715;28;20208;-88
2023/12/21 03:21:28;;;;;;;3.70;0.70;;;10.00;70.70;8.60;95906.00;;;;4984656;28;20231;-88
2023/12/21 03:23:55;;;;;;;0.20;0.20;;;10.00;70.90;8.60;95907.00;;;;4972415;28;20239;-88
2023/12/21 03:26:22;;;;;;;0.13;0.13;;;10.00;70.90;8.60;95903.00;;;;4986464;28;20262;-88
2023/12/21 03:28:49;;;;;;;0.40;0.40;;;10.00;70.90;8.60;95911.00;;;;4982934;28;20298;-88
2023/12/21 03:31:18;;;;;;;0.27;0.27;;;10.00;71.10;8.60;95884.00;;;;4979230;28;20297;-88
2023/12/21 03:33:46;;;;;;;0.70;0.40;;;10.00;71.20;8.60;95884.00;;;;4975340;28;20294;-89
2023/12/21 03:36:13;;;;;;;0.30;0.30;;;10.00;71.50;8.50;95875.00;;;;4970282;28;20614;-88
2023/12/21 03:38:41;;;;;;;0.30;0.30;;;9.90;71.60;8.50;95861.00;;;;4980765;28;20292;-88
2023/12/21 03:41:08;;;;;;;0.30;0.30;;;9.90;71.80;8.50;95861.00;;;;4977628;28;20694;-88
2023/12/21 03:43:37;;;;;;;0.30;0.30;;;9.90;71.90;8.50;95845.00;;;;4980980;28;20254;-88
2023/12/21 03:46:08;;;;;;;0.30;0.30;;;9.90;72.00;8.50;95844.00;;;;4974788;28;20228;-88
2023/12/21 03:48:35;;;;;;;0.37;0.30;;;9.90;72.20;8.50;95842.00;;;;4980726;28;20666;-88
2023/12/21 03:51:05;;;;;;;0.50;0.50;;;9.90;72.20;8.50;95843.00;;;;4980909;28;20292;-88
2023/12/21 03:53:32;;;;;;;0.30;0.30;;;9.90;72.10;8.50;95827.00;;;;4976242;28;20293;-88
2023/12/21 03:56:00;;;;;;;0.40;0.40;;;9.90;72.20;8.50;95830.00;;;;4980552;28;20259;-88
2023/12/21 03:58:29;;;;;;;2.03;0.30;;;9.80;72.20;8.40;95822.00;;;;4976012;28;20212;-89
2023/12/21 04:00:57;;;;;;;0.30;0.30;;;9.80;72.30;8.50;95817.00;;;;4972376;28;20199;-88
2023/12/21 04:03:24;;;;;;;0.30;0.20;;;9.90;72.30;8.40;95819.00;;;;4973868;28;20207;-88
2023/12/21 04:05:51;;;;;;;0.50;0.50;;;9.80;73.00;8.40;95822.00;;;;4970151;28;20270;-87
2023/12/21 04:08:21;;;;;;;0.30;0.30;;;9.80;72.40;8.50;95797.00;;;;4985246;28;20230;-88
2023/12/21 04:10:48;;;;;;;0.50;0.50;;;9.90;72.40;8.50;95810.00;;;;4982101;28;20199;-88
2023/12/21 04:13:16;;;;;;;0.20;0.20;;;9.80;72.30;8.50;95807.00;;;;4975112;28;20290;-88
2023/12/21 04:15:44;;;;;;;0.33;0.33;;;9.80;72.40;8.50;95809.00;;;;4979171;28;20278;-87
2023/12/21 04:18:11;;;;;;;0.30;0.30;;;9.80;72.40;8.50;95796.00;;;;4978236;28;20191;-88
2023/12/21 04:20:39;;;;;;;0.33;0.30;;;9.80;72.30;8.50;95795.00;;;;4980416;28;20249;-88
2023/12/21 04:23:06;;;;;;;0.30;0.30;;;9.80;72.40;8.50;95786.00;;;;4977879;28;20239;-88
2023/12/21 04:25:34;;;;;;;0.30;0.30;;;9.80;72.40;8.50;95790.00;;;;4970552;28;20690;-88
2023/12/21 04:28:03;;;;;;;0.40;0.40;;;9.80;72.40;8.50;95793.00;;;;4972143;28;20667;-88
2023/12/21 04:30:30;;;;;;;0.30;0.30;;;9.90;72.50;8.60;95774.00;;;;4988194;28;20249;-88
2023/12/21 04:32:58;;;;;;;0.30;0.20;;;9.90;72.50;8.60;95758.00;;;;4966914;28;20215;-88
2023/12/21 04:35:25;;;;;;;0.30;0.30;;;9.90;72.30;8.60;95776.00;;;;4969204;28;20223;-88
2023/12/21 04:37:52;;;;;;;0.20;0.20;;;9.90;72.30;8.60;95781.00;;;;4981233;28;20256;-88
2023/12/21 04:40:19;;;;;;;0.30;0.30;;;10.00;72.20;8.60;95773.00;;;;4981772;28;20686;-88
2023/12/21 04:42:52;;;;;;;0.23;0.23;;;10.00;72.20;8.70;95779.00;;;;4962692;28;20207;-88
2023/12/21 04:45:19;;;;;;;0.37;0.37;;;10.00;72.10;8.70;95770.00;;;;4974720;28;20233;-88
2023/12/21 04:47:46;;;;;;;0.27;0.27;;;10.00;72.10;8.70;95768.00;;;;4987391;28;20264;-87
2023/12/21 04:50:14;;;;;;;0.30;0.30;;;10.10;72.00;8.80;95755.00;;;;4973553;28;20223;-88
2023/12/21 04:52:41;;;;;;;0.90;0.30;;;10.10;71.90;8.80;95765.00;;;;4985781;28;20209;-87
2023/12/21 04:55:09;;;;;;;0.20;0.20;;;10.10;71.90;8.80;95763.00;;;;4984113;28;20326;-88
2023/12/21 04:57:36;;;;;;;0.30;0.30;;;10.10;71.90;8.90;95764.00;;;;4979789;28;20211;-88
2023/12/21 05:00:09;;;;;;;0.30;0.20;;;10.20;71.90;8.90;95761.00;;;;4982556;28;20223;-88
2023/12/21 05:02:36;;;;;;;0.43;0.20;;;10.20;71.80;8.90;95754.00;;;;4978790;28;20222;-88
2023/12/21 05:05:04;;;;;;;0.20;0.20;;;10.20;71.90;8.90;95753.00;;;;4979774;28;20222;-88
2023/12/21 05:07:31;;;;;;;0.20;0.20;;;10.20;71.80;8.90;95738.00;;;;4972834;28;20582;-88
2023/12/21 05:10:00;;;;;;;0.20;0.10;;;10.30;72.30;9.00;95718.00;;;;4976255;28;20211;-89
2023/12/21 05:12:28;;;;;;;0.20;0.20;;;10.30;71.70;9.00;95702.00;;;;4973825;28;20306;-88
2023/12/21 05:14:55;;;;;;;0.20;0.20;;;10.30;71.80;9.00;95710.00;;;;4977096;28;20246;-88
2023/12/21 05:17:25;;;;;;;0.50;0.30;;;10.30;71.70;9.00;95719.00;;;;4983207;28;20207;-87
2023/12/21 05:19:52;;;;;;;0.17;0.10;;;10.30;71.50;9.00;95722.00;;;;4972523;28;20243;-88
2023/12/21 05:22:19;;;;;;;0.50;0.20;;;10.40;71.70;9.10;95715.00;;;;4991121;28;20229;-88
2023/12/21 05:24:58;;;;;;;0.27;0.27;;;10.40;71.60;9.10;95710.00;;;;4979544;28;20247;-88
2023/12/21 05:27:26;;;;;;;0.20;0.20;;;10.40;71.30;9.10;95705.00;;;;4972038;28;20247;-88
2023/12/21 05:30:02;;;;;;;0.20;0.20;;;10.40;71.40;9.10;95710.00;;;;4980374;28;20208;-89
2023/12/21 05:32:31;;;;;;;0.20;0.20;;;10.40;71.10;9.10;95716.00;;;;4971768;28;20265;-88
2023/12/21 05:34:58;;;;;;;0.20;0.20;;;10.50;71.40;9.20;95711.00;;;;4969333;28;20219;-88
2023/12/21 05:37:29;;;;;;;0.60;0.30;;;10.50;71.30;9.20;95706.00;;;;4977486;28;20655;-87
2023/12/21 05:39:57;;;;;;;0.37;0.30;;;10.50;71.40;9.20;95705.00;;;;4984664;28;20207;-88
2023/12/21 05:42:24;;;;;;;0.40;0.20;;;10.50;71.30;9.20;95708.00;;;;4984266;28;20203;-87
2023/12/21 05:44:52;;;;;;;0.20;0.20;;;10.60;71.20;9.30;95719.00;;;;4974443;28;20215;-87
2023/12/21 05:47:19;;;;;;;0.23;0.23;;;10.60;71.20;9.30;95724.00;;;;4980014;28;20223;-88
2023/12/21 05:49:49;;;;;;;0.10;0.10;;;10.60;71.30;9.30;95718.00;;;;4979603;28;20652;-87
2023/12/21 05:52:17;;;;;;;0.23;0.23;;;10.60;71.10;9.30;95719.00;;;;4976477;28;20226;-88
2023/12/21 05:54:45;;;;;;;0.30;0.20;;;10.60;71.10;9.30;95707.00;;;;4979225;28;20223;-87
2023/12/21 05:57:12;;;;;;;0.10;0.10;;;10.60;71.10;9.30;95702.00;;;;4978148;28;20207;-87
2023/12/21 05:59:39;;;;;;;1.40;0.33;;;10.60;71.00;9.40;95716.00;;;;4977743;28;20207;-88
2023/12/21 06:02:06;;;;;;;0.30;0.20;;;10.70;71.10;9.40;95709.00;;;;4982209;28;20200;-87
2023/12/21 06:04:34;;;;;;;0.40;0.30;;;10.70;71.00;9.40;95721.00;;;;4979225;28;20195;-88
2023/12/21 06:07:03;;;;;;;0.60;0.30;;;10.70;70.90;9.40;95705.00;;;;4971284;28;20219;-88
2023/12/21 06:09:30;;;;;;;0.20;0.20;;;10.70;70.80;9.40;95700.00;;;;4977079;28;20282;-88
2023/12/21 06:11:59;;;;;;;0.87;0.30;;;10.70;70.80;9.40;95696.00;;;;4966932;28;20212;-88
2023/12/21 06:14:26;;;;;;;0.20;0.20;;;10.70;70.70;9.40;95678.00;;;;4977895;28;20199;-88
2023/12/21 06:16:53;;;;;;;0.20;0.20;;;10.70;70.90;9.50;95698.00;;;;4979912;28;20207;-88
2023/12/21 06:19:20;;;;;;;0.10;0.10;;;10.70;70.90;9.50;95684.00;;;;4979711;28;20659;-88
2023/12/21 06:21:47;;;;;;;0.27;0.20;;;10.80;71.00;9.50;95667.00;;;;4979551;28;20632;-88
2023/12/21 06:24:16;;;;;;;0.20;0.20;;;10.80;70.90;9.50;95664.00;;;;4979626;28;20695;-89
2023/12/21 06:26:44;;;;;;;0.20;0.20;;;10.80;70.90;9.50;95683.00;;;;4974512;28;20222;-88
2023/12/21 06:29:11;;;;;;;0.40;0.30;;;10.80;70.90;9.60;95673.00;;;;4983089;28;20631;-88
2023/12/21 06:31:39;;;;;;;0.30;0.30;;;10.80;70.70;9.60;95681.00;;;;4977126;28;20207;-87
2023/12/21 06:34:07;;;;;;;0.27;0.27;;;10.90;70.60;9.60;95687.00;;;;4982519;28;20207;-87
2023/12/21 06:36:38;;;;;;;0.30;0.30;;;10.90;70.60;9.70;95684.00;;;;4981765;28;20238;-86
2023/12/21 06:39:09;;;;;;;0.20;0.20;;;10.90;70.50;9.70;95661.00;;;;4983435;28;20227;-87
2023/12/21 06:41:39;;;;;;;0.47;0.20;;;11.00;70.50;9.70;95659.00;;;;4976356;28;20210;-88
2023/12/21 06:44:10;;;;;;;0.30;0.30;;;11.00;70.40;9.70;95653.00;;;;4981987;28;20285;-89
2023/12/21 06:46:38;;;;;;;0.30;0.20;;;11.00;70.40;9.70;95650.00;;;;4980507;28;20737;-87
2023/12/21 06:49:11;;;;;;;0.30;0.30;;;11.00;70.40;9.80;95650.00;;;;4986692;28;20234;-87
2023/12/21 06:51:38;;;;;;;0.20;0.20;;;11.00;70.30;9.80;95654.00;;;;4976602;28;20222;-87
2023/12/21 06:54:08;;;;;;;0.20;0.20;;;11.10;70.50;9.80;95641.00;;;;4972396;28;20625;-88
2023/12/21 06:56:36;;;;;;;0.60;0.40;;;11.10;70.20;9.80;95637.00;;;;4968399;28;20262;-88
2023/12/21 06:59:05;;;;;;;0.20;0.20;;;11.10;70.20;9.80;95632.00;;;;4973047;28;20199;-87
2023/12/21 07:01:35;;;;;;;0.30;0.30;;;11.10;70.20;9.80;95628.00;;;;4976004;28;20201;-87
2023/12/21 07:04:08;;;;;;;0.27;0.27;;;11.00;70.10;9.80;95630.00;;;;4969220;28;20305;-87
2023/12/21 07:06:55;;;;;;;0.20;0.20;;;11.10;69.90;9.90;95633.00;;;;4976514;28;20316;-88
2023/12/21 07:09:36;;;;;;;0.83;0.83;;;11.10;70.10;9.90;95616.00;;;;4973602;28;20207;-88
2023/12/21 07:12:06;;;;;;;0.40;0.40;;;11.20;69.60;9.90;95607.00;;;;4982559;28;20656;-88
2023/12/21 07:14:35;;;;;;;0.20;0.20;;;11.20;70.00;9.90;95616.00;;;;4980143;28;20200;-88
2023/12/21 07:17:02;;;;;;;0.20;0.20;;;11.20;69.90;9.90;95625.00;;;;4979046;28;20648;-87
2023/12/21 07:19:29;;;;;;;0.37;0.37;;;11.20;69.80;10.00;95600.00;;;;4982811;28;20196;-88
2023/12/21 07:21:56;;;;;;;0.20;0.20;;;11.20;69.70;10.00;95600.00;;;;4981027;28;20631;-88
2023/12/21 07:24:24;;;;;;;0.47;0.27;;;11.30;69.90;10.00;95593.00;;;;4983716;28;20714;-88
2023/12/21 07:26:51;;;;;;;0.40;0.20;;;11.30;69.70;10.00;95595.00;;;;4989947;28;20246;-88
2023/12/21 07:29:18;;;;;;;0.20;0.20;;;11.30;69.70;10.00;95575.00;;;;4982888;28;20276;-88
2023/12/21 07:31:46;;;;;;;0.20;0.20;;;11.30;70.40;10.00;95587.00;;;;4982449;28;20211;-88
2023/12/21 07:34:13;;;;;;;0.20;0.20;;;11.30;69.70;10.10;95577.00;;;;4977569;28;20291;-88
2023/12/21 07:36:41;;;;;;;0.20;0.20;;;11.30;69.70;10.10;95570.00;;;;4979297;28;20281;-88
2023/12/21 07:39:09;;;;;;;0.30;0.30;;;11.40;69.70;10.10;95563.00;;;;4973922;28;20277;-89
2023/12/21 07:41:36;;;;;;;0.33;0.33;;;11.40;69.60;10.10;95569.00;;;;4981700;28;20612;-88
2023/12/21 07:44:03;;;;;;;0.40;0.40;;;11.40;69.60;10.10;95555.00;;;;4976985;28;20199;-88
2023/12/21 07:46:30;;;;;;;1.23;0.30;;;11.40;69.50;10.20;95543.00;;;;4978946;28;20234;-88
2023/12/21 07:48:59;;;;;;;0.30;0.30;;;11.40;69.60;10.20;95550.00;;;;4972856;28;20280;-88
2023/12/21 07:51:26;;;;;;;0.30;0.20;;;11.40;70.10;10.20;95534.00;;;;4977634;28;20273;-88
2023/12/21 07:53:53;;;;;;;0.40;0.30;;;11.50;69.30;10.20;95549.00;;;;4971273;28;20230;-88
2023/12/21 07:56:21;;;;;;;0.27;0.27;;;11.40;69.20;10.30;95546.00;;;;4981215;28;20317;-88
2023/12/21 07:58:48;;;;;;;0.20;0.20;;;11.50;69.40;10.30;95536.00;;;;4972519;28;20210;-87
2023/12/21 08:01:15;;;;;;;0.37;0.30;;;11.50;69.30;10.30;95537.00;;;;4976109;28;20234;-88
2023/12/21 08:03:44;;;;;;;0.50;0.20;;;11.50;69.30;10.30;95525.00;;;;4978679;28;20662;-88
2023/12/21 08:06:22;;;;;;;0.77;0.20;;;11.60;69.30;10.30;95522.00;;;;4981159;28;20682;-82
2023/12/21 08:08:52;;;;;;;1.23;0.20;;;11.60;68.80;10.40;95526.00;;;;4975245;28;20246;-82
2023/12/21 08:11:19;;;;;;;0.40;0.40;;;11.60;69.20;10.40;95523.00;;;;4974836;28;20291;-82
2023/12/21 08:13:47;;;;;;;0.30;0.20;;;11.70;69.20;10.50;95516.00;;;;4974342;28;20670;-82
2023/12/21 08:16:14;;;;;;;0.30;0.30;;;11.70;69.10;10.50;95533.00;;;;4962933;28;20219;-83
2023/12/21 08:18:41;;;;;;;1.83;0.40;;;11.70;69.10;10.60;95528.00;;;;4971604;28;20297;-84
2023/12/21 08:21:09;;;;;;;0.30;0.30;;;11.80;69.40;10.60;95517.00;;;;4972988;28;20206;-83
2023/12/21 08:23:38;;;;;;;1.50;0.50;;;11.80;68.70;10.60;95507.00;;;;4973427;28;20537;-83
2023/12/21 08:26:06;;;;;;;0.10;0.10;;;11.80;68.70;10.70;95504.00;;;;4971857;28;20306;-83
2023/12/21 08:28:33;;;;;;;0.40;0.40;;;11.90;68.70;10.70;95499.00;;;;4973698;28;20211;-82
2023/12/21 08:31:01;;;;;;;0.30;0.20;;;11.90;68.70;10.70;95503.00;;;;4974392;28;20694;-83
2023/12/21 08:33:29;;;;;;;0.20;0.20;;;11.90;68.70;10.70;95512.00;;;;4976327;28;20643;-82
2023/12/21 08:35:56;;;;;;;0.30;0.20;;;11.90;68.50;10.80;95497.00;;;;4976683;28;20219;-81
2023/12/21 08:38:24;;;;;;;0.30;0.20;;;12.00;68.50;10.80;95511.00;;;;4977817;28;20223;-82
2023/12/21 08:40:53;;;;;;;0.10;0.10;;;12.00;68.40;10.80;95513.00;;;;4985115;28;20195;-82
2023/12/21 08:43:20;;;;;;;0.40;0.27;;;12.10;68.40;10.90;95514.00;;;;4981815;28;20223;-82
2023/12/21 08:45:47;;;;;;;0.20;0.20;;;12.10;68.40;10.90;95519.00;;;;4978296;28;20710;-82
2023/12/21 08:48:15;;;;;;;0.10;0.10;;;12.10;68.30;10.90;95537.00;;;;4977919;28;20310;-82
2023/12/21 08:50:43;;;;;;;0.23;0.23;;;12.10;68.30;10.90;95513.00;;;;4977160;28;20210;-82
2023/12/21 08:53:11;;;;;;;0.30;0.30;;;12.20;68.20;10.90;95521.00;;;;4985609;28;20199;-82
2023/12/21 08:55:38;;;;;;;0.40;0.40;;;12.20;68.20;11.00;95511.00;;;;4977146;28;20226;-82
2023/12/21 08:58:07;;;;;;;0.20;0.20;;;12.20;68.30;11.00;95491.00;;;;4996445;28;20658;-82
2023/12/21 09:00:35;;;;;;;0.93;0.30;;;12.20;68.00;11.00;95505.00;;;;4982093;28;20204;-82
2023/12/21 09:03:03;;;;;;;0.30;0.20;;;12.20;67.90;10.90;95487.00;;;;4982644;28;20609;-82
2023/12/21 09:05:32;;;;;;;0.10;0.10;;;12.20;68.10;11.00;95474.00;;;;4976167;28;20231;-82
2023/12/21 09:07:59;;;;;;;0.33;0.20;;;12.20;68.10;11.00;95486.00;;;;4972475;28;20310;-82
2023/12/21 09:10:27;;;;;;;0.17;0.17;;;12.20;68.10;11.00;95472.00;;;;4973202;28;20195;-82
2023/12/21 09:12:54;;;;;;;0.20;0.20;;;12.20;68.10;11.00;95479.00;;;;4973583;28;20203;-82
2023/12/21 09:15:22;;;;;;;0.30;0.30;;;12.20;68.10;11.00;95463.00;;;;4980778;28;20254;-82
2023/12/21 09:17:49;;;;;;;1.43;0.20;;;12.20;67.70;11.00;95446.00;;;;4976867;28;20291;-82
2023/12/21 09:20:17;;;;;;;0.30;0.20;;;12.30;68.00;11.00;95451.00;;;;4974320;28;20203;-82
2023/12/21 09:22:45;;;;;;;0.20;0.20;;;12.30;68.10;11.10;95448.00;;;;4976810;28;20630;-82
2023/12/21 09:25:12;;;;;;;0.10;0.10;;;12.30;68.20;11.10;95463.00;;;;4975365;28;20215;-82
2023/12/21 09:27:39;;;;;;;0.10;0.10;;;12.30;68.20;11.10;95443.00;;;;4975688;28;20254;-82
2023/12/21 09:30:08;;;;;;;0.20;0.20;;;12.30;68.40;11.10;95452.00;;;;4984656;28;20211;-82
2023/12/21 09:32:39;;;;;;;0.10;0.10;;;12.30;68.30;11.10;95445.00;;;;4975033;28;20659;-82
2023/12/21 09:35:07;;;;;;;0.20;0.20;;;12.30;68.20;11.10;95443.00;;;;4980939;28;20219;-82
2023/12/21 09:37:35;;;;;;;0.40;0.30;;;12.40;68.00;11.10;95435.00;;;;4974991;28;20199;-82
2023/12/21 09:40:03;;;;;;;0.47;0.10;;;12.30;67.80;11.20;95431.00;;;;4975804;28;20187;-82
2023/12/21 09:42:32;;;;;;;0.50;0.10;;;12.40;67.90;11.20;95421.00;;;;4980053;28;20595;-82
2023/12/21 09:45:03;;;;;;;0.10;0.10;;;12.40;67.90;11.20;95416.00;;;;4976521;28;20219;-82
2023/12/21 09:47:32;;;;;;;0.10;0.10;;;12.40;68.00;11.30;95419.00;;;;4975546;28;20211;-82
2023/12/21 09:50:04;;;;;;;0.20;0.20;;;12.40;67.80;11.30;95413.00;;;;4975216;28;20279;-82
2023/12/21 09:52:34;;;;;;;0.10;0.10;;;12.50;67.90;11.30;95401.00;;;;4975311;28;20191;-82
2023/12/21 09:55:04;;;;;;;0.20;0.20;;;12.50;67.90;11.30;95395.00;;;;4974983;28;20229;-83
2023/12/21 09:57:31;;;;;;;0.10;0.10;;;12.50;67.90;11.40;95385.00;;;;4974782;28;20223;-82
2023/12/21 10:00:00;;;;;;;0.27;0.27;;;12.60;67.80;11.40;95389.00;;;;4973675;28;20772;-82
2023/12/21 10:02:30;;;;;;;0.20;0.20;;;12.60;67.50;11.40;95363.00;;;;4990497;28;20302;-82
2023/12/21 10:04:58;;;;;;;0.20;0.20;;;12.60;67.50;11.40;95350.00;;;;4980169;28;20223;-82
2023/12/21 10:07:28;;;;;;;0.40;0.20;;;12.60;67.60;11.40;95358.00;;;;4977742;28;20246;-82
2023/12/21 10:09:57;;;;;;;0.37;0.30;;;12.70;67.70;11.50;95332.00;;;;4991802;28;20222;-82
2023/12/21 10:12:26;;;;;;;0.13;0.10;;;12.70;67.90;11.50;95331.00;;;;4978933;28;20203;-82
2023/12/21 10:15:03;;;;;;;0.10;0.10;;;12.70;68.00;11.40;95331.00;;;;4979520;28;20297;-82
2023/12/21 10:17:32;;;;;;;0.30;0.30;;;12.70;67.80;11.40;95320.00;;;;4979395;28;20207;-82
2023/12/21 10:20:00;;;;;;;0.30;0.30;;;12.70;67.90;11.40;95291.00;;;;4979489;28;20206;-82
2023/12/21 10:22:29;;;;;;;0.40;0.30;;;12.70;68.00;11.40;95283.00;;;;4974121;28;20270;-82
2023/12/21 10:24:56;;;;;;;0.30;0.30;;;12.70;67.80;11.40;95268.00;;;;4960868;28;20247;-83
2023/12/21 10:27:34;;;;;;;0.53;0.33;;;12.70;67.70;11.50;95275.00;;;;4978225;28;20266;-82
2023/12/21 10:30:03;;;;;;;0.33;0.30;;;12.70;67.70;11.50;95242.00;;;;4960861;28;20660;-82
2023/12/21 10:32:32;;;;;;;1.70;0.40;;;12.70;67.60;11.50;95261.00;;;;4984438;28;20221;-82
2023/12/21 10:34:59;;;;;;;0.20;0.20;;;12.70;67.60;11.50;95246.00;;;;4980962;28;20641;-82
2023/12/21 10:37:28;;;;;;;0.97;0.40;;;12.70;67.70;11.50;95241.00;;;;4979487;28;20297;-82
2023/12/21 10:39:57;;;;;;;0.30;0.30;;;12.70;67.70;11.50;95244.00;;;;4978990;28;20283;-82
2023/12/21 10:42:25;;;;;;;0.30;0.30;;;12.70;67.60;11.50;95244.00;;;;4978589;28;20200;-82
2023/12/21 10:44:52;;;;;;;0.30;0.30;;;12.70;67.70;11.50;95223.00;;;;4978647;28;20251;-82
2023/12/21 10:47:19;;;;;;;0.63;0.30;;;12.70;67.80;11.50;95238.00;;;;4978554;28;20281;-82
2023/12/21 10:49:46;;;;;;;0.37;0.37;;;12.70;67.80;11.50;95226.00;;;;4977995;28;20227;-82
2023/12/21 10:52:16;;;;;;;2.43;0.80;;;12.70;67.90;11.50;95231.00;;;;4981312;28;20230;-82
2023/12/21 10:54:47;;;;;;;0.93;0.40;;;12.70;67.90;11.40;95202.00;;;;4978740;28;20250;-82
2023/12/21 10:57:16;;;;;;;0.20;0.10;;;12.70;67.80;11.40;95194.00;;;;4969029;28;20215;-82
2023/12/21 10:59:44;;;;;;;0.27;0.20;;;12.70;68.00;11.50;95211.00;;;;4968756;28;20231;-82
2023/12/21 11:02:14;;;;;;;1.30;0.40;;;12.70;68.00;11.50;95188.00;;;;4972699;28;20258;-82
2023/12/21 11:04:44;;;;;;;0.20;0.10;;;12.70;68.00;11.50;95167.00;;;;4976721;28;20586;-82